createdAt,value
2023-09-08T00:00:54.586Z,8.45
2023-09-08T00:01:56.886Z,7.68
2023-09-08T00:02:58.964Z,8.80
2023-09-08T00:04:00.965Z,8.45
2023-09-08T00:05:03.139Z,9.20
2023-09-08T00:06:05.726Z,9.23
2023-09-08T00:07:07.785Z,8.93
2023-09-08T00:08:09.667Z,8.98
2023-09-08T00:09:11.516Z,8.73
2023-09-08T00:10:13.417Z,8.43
2023-09-08T00:11:15.350Z,8.35
2023-09-08T00:12:17.713Z,8.88
2023-09-08T00:13:22.238Z,8.70
2023-09-08T00:14:24.197Z,8.32
2023-09-08T00:15:26.151Z,8.68
2023-09-08T00:16:30.821Z,8.32
2023-09-08T00:17:32.916Z,9.20
2023-09-08T00:18:35.120Z,8.85
2023-09-08T00:19:37.362Z,8.77
2023-09-08T00:20:39.358Z,8.02
2023-09-08T00:21:44.268Z,8.85
2023-09-08T00:22:46.264Z,8.20
2023-09-08T00:23:48.255Z,8.48
2023-09-08T00:24:50.070Z,9.00
2023-09-08T00:25:52.223Z,8.48
2023-09-08T00:26:54.139Z,8.23
2023-09-08T00:27:56.029Z,8.05
2023-09-08T00:28:57.931Z,8.00
2023-09-08T00:30:02.826Z,8.80
2023-09-08T00:31:05.929Z,9.05
2023-09-08T00:32:08.160Z,7.70
2023-09-08T00:33:10.407Z,7.85
2023-09-08T00:34:12.482Z,8.50
2023-09-08T00:35:14.490Z,7.93
2023-09-08T00:36:16.493Z,8.60
2023-09-08T00:37:18.366Z,8.27
2023-09-08T00:38:20.978Z,8.88
2023-09-08T00:39:23.127Z,9.13
2023-09-08T00:40:25.076Z,9.00
2023-09-08T00:41:27.055Z,9.07
2023-09-08T00:42:29.193Z,9.55
2023-09-08T00:43:31.011Z,9.10
2023-09-08T00:44:32.901Z,8.38
2023-09-08T00:45:42.731Z,8.80
2023-09-08T00:46:45.028Z,8.90
2023-09-08T00:47:47.080Z,9.60
2023-09-08T00:48:49.118Z,9.32
2023-09-08T00:49:52.266Z,9.20
2023-09-08T00:50:54.177Z,10.40
2023-09-08T00:51:56.917Z,9.50
2023-09-08T00:52:58.854Z,9.63
2023-09-08T00:54:00.845Z,9.43
2023-09-08T00:55:03.057Z,9.25
2023-09-08T00:56:06.011Z,8.98
2023-09-08T00:57:08.174Z,9.50
2023-09-08T00:58:12.644Z,9.43
2023-09-08T00:59:14.572Z,9.20
2023-09-08T01:00:17.140Z,9.50
2023-09-08T01:01:19.243Z,9.38
2023-09-08T01:02:23.642Z,9.52
2023-09-08T01:03:26.747Z,9.05
2023-09-08T01:04:29.842Z,9.50
2023-09-08T01:05:32.512Z,9.20
2023-09-08T01:06:35.565Z,9.70
2023-09-08T01:07:38.149Z,10.15
2023-09-08T01:08:40.522Z,9.05
2023-09-08T01:09:43.358Z,9.95
2023-09-08T01:10:46.460Z,9.45
2023-09-08T01:11:48.798Z,9.68
2023-09-08T01:12:51.618Z,9.15
2023-09-08T01:13:54.390Z,9.70
2023-09-08T01:14:56.454Z,10.85
2023-09-08T01:15:58.438Z,10.05
2023-09-08T01:17:00.537Z,9.50
2023-09-08T01:18:02.792Z,9.20
2023-09-08T01:19:11.744Z,9.02
2023-09-08T01:20:45.715Z,8.93
2023-09-08T01:22:46.465Z,9.57
2023-09-08T01:24:57.467Z,9.07
2023-09-08T01:26:11.446Z,9.23
2023-09-08T01:27:17.752Z,9.55
2023-09-08T01:28:23.068Z,8.90
2023-09-08T01:29:30.497Z,8.40
2023-09-08T01:30:33.842Z,8.18
2023-09-08T01:31:37.189Z,8.60
2023-09-08T01:32:40.006Z,8.65
2023-09-08T01:33:43.054Z,8.88
2023-09-08T01:34:45.991Z,8.40
2023-09-08T01:35:48.226Z,8.48
2023-09-08T01:36:50.418Z,8.38
2023-09-08T01:37:52.638Z,8.27
2023-09-08T01:38:54.526Z,8.68
2023-09-08T01:39:56.409Z,7.90
2023-09-08T01:40:58.301Z,8.18
2023-09-08T01:42:00.411Z,9.05
2023-09-08T01:43:02.432Z,7.60
2023-09-08T01:44:09.268Z,8.63
2023-09-08T01:45:12.211Z,8.27
2023-09-08T01:46:14.456Z,8.43
2023-09-08T01:47:17.677Z,8.40
2023-09-08T01:48:19.956Z,8.07
2023-09-08T01:49:21.816Z,8.25
2023-09-08T01:50:25.702Z,8.88
2023-09-08T01:51:27.584Z,8.45
2023-09-08T01:52:29.659Z,8.55
2023-09-08T01:53:31.696Z,7.63
2023-09-08T01:54:33.623Z,8.93
2023-09-08T01:55:36.269Z,8.70
2023-09-08T01:56:38.181Z,8.75
2023-09-08T01:57:40.125Z,8.65
2023-09-08T01:58:42.069Z,8.40
2023-09-08T01:59:45.653Z,9.25
2023-09-08T02:00:53.528Z,8.02
2023-09-08T02:01:55.539Z,8.38
2023-09-08T02:02:58.536Z,8.15
2023-09-08T02:04:00.508Z,9.10
2023-09-08T02:05:02.659Z,8.32
2023-09-08T02:06:05.019Z,8.10
2023-09-08T02:07:06.905Z,8.95
2023-09-08T02:08:08.868Z,8.02
2023-09-08T02:09:15.792Z,8.75
2023-09-08T02:10:17.938Z,7.80
2023-09-08T02:11:22.248Z,8.98
2023-09-08T02:12:24.930Z,8.27
2023-09-08T02:13:27.093Z,8.63
2023-09-08T02:14:29.123Z,8.07
2023-09-08T02:15:31.132Z,8.88
2023-09-08T02:16:33.154Z,8.35
2023-09-08T02:17:35.116Z,9.23
2023-09-08T02:18:37.280Z,9.35
2023-09-08T02:19:41.176Z,8.55
2023-09-08T02:20:43.319Z,8.82
2023-09-08T02:21:45.400Z,8.15
2023-09-08T02:22:49.057Z,8.55
2023-09-08T02:23:50.980Z,8.00
2023-09-08T02:24:53.868Z,8.00
2023-09-08T02:25:56.168Z,8.90
2023-09-08T02:26:58.479Z,9.02
2023-09-08T02:28:01.010Z,8.18
2023-09-08T02:29:03.232Z,8.30
2023-09-08T02:30:06.700Z,8.73
2023-09-08T02:31:08.891Z,8.48
2023-09-08T02:32:10.900Z,8.65
2023-09-08T02:33:12.948Z,9.30
2023-09-08T02:34:15.354Z,8.63
2023-09-08T02:35:17.491Z,8.90
2023-09-08T02:36:26.226Z,8.38
2023-09-08T02:37:29.754Z,8.13
2023-09-08T02:38:31.931Z,9.10
2023-09-08T02:39:34.347Z,9.10
2023-09-08T02:40:36.409Z,9.68
2023-09-08T02:41:40.320Z,9.02
2023-09-08T02:42:42.353Z,9.02
2023-09-08T02:43:45.290Z,8.90
2023-09-08T02:44:48.280Z,9.05
2023-09-08T02:45:50.395Z,9.13
2023-09-08T02:46:55.437Z,8.70
2023-09-08T02:47:57.601Z,9.60
2023-09-08T02:48:59.552Z,8.88
2023-09-08T02:50:01.485Z,9.32
2023-09-08T02:51:03.427Z,9.63
2023-09-08T02:52:05.333Z,8.82
2023-09-08T02:53:07.246Z,9.38
2023-09-08T02:54:09.480Z,9.35
2023-09-08T02:55:13.126Z,8.65
2023-09-08T02:56:14.997Z,9.32
2023-09-08T02:57:16.976Z,8.52
2023-09-08T02:58:18.830Z,8.85
2023-09-08T02:59:20.759Z,8.95
2023-09-08T03:00:22.752Z,9.40
2023-09-08T03:01:25.108Z,9.27
2023-09-08T03:02:27.812Z,9.50
2023-09-08T03:03:30.648Z,8.77
2023-09-08T03:04:32.681Z,9.45
2023-09-08T03:05:36.682Z,8.95
2023-09-08T03:06:38.611Z,9.90
2023-09-08T03:07:40.617Z,9.27
2023-09-08T03:08:42.624Z,9.75
2023-09-08T03:09:45.016Z,9.23
2023-09-08T03:10:46.990Z,10.02
2023-09-08T03:11:48.921Z,9.68
2023-09-08T03:12:50.804Z,9.15
2023-09-08T03:13:52.766Z,9.32
2023-09-08T03:14:56.023Z,9.30
2023-09-08T03:16:02.602Z,9.32
2023-09-08T03:17:04.770Z,8.90
2023-09-08T03:18:07.047Z,8.40
2023-09-08T03:19:09.932Z,9.88
2023-09-08T03:20:14.322Z,9.70
2023-09-08T03:21:16.377Z,9.57
2023-09-08T03:22:19.461Z,9.65
2023-09-08T03:23:22.322Z,9.75
2023-09-08T03:24:24.241Z,9.73
2023-09-08T03:25:26.113Z,9.70
2023-09-08T03:26:28.050Z,10.13
2023-09-08T03:27:30.002Z,9.90
2023-09-08T03:28:34.791Z,10.32
2023-09-08T03:29:36.854Z,9.57
2023-09-08T03:30:38.877Z,9.80
2023-09-08T03:31:41.522Z,9.68
2023-09-08T03:32:43.861Z,9.65
2023-09-08T03:33:46.047Z,9.43
2023-09-08T03:34:48.063Z,10.70
2023-09-08T03:35:50.022Z,10.23
2023-09-08T03:36:55.029Z,10.10
2023-09-08T03:37:57.143Z,9.73
2023-09-08T03:39:01.762Z,10.88
2023-09-08T03:40:08.085Z,9.90
2023-09-08T03:41:10.338Z,9.90
2023-09-08T03:42:12.236Z,9.55
2023-09-08T03:43:15.362Z,11.65
2023-09-08T03:44:17.306Z,9.32
2023-09-08T03:45:19.470Z,10.40
2023-09-08T03:46:22.340Z,9.23
2023-09-08T03:47:24.374Z,10.40
2023-09-08T03:48:27.006Z,10.30
2023-09-08T03:49:28.941Z,11.05
2023-09-08T03:50:31.383Z,10.50
2023-09-08T03:51:33.300Z,10.15
2023-09-08T03:52:35.387Z,10.55
2023-09-08T03:53:37.673Z,10.55
2023-09-08T03:54:39.772Z,9.82
2023-09-08T03:55:41.749Z,10.07
2023-09-08T03:56:43.611Z,10.05
2023-09-08T03:57:45.689Z,10.55
2023-09-08T03:58:48.884Z,10.05
2023-09-08T03:59:50.813Z,10.38
2023-09-08T04:00:52.809Z,10.15
2023-09-08T04:01:54.867Z,10.10
2023-09-08T04:02:57.900Z,10.40
2023-09-08T04:03:59.929Z,9.98
2023-09-08T04:05:01.896Z,10.18
2023-09-08T04:06:04.162Z,10.68
2023-09-08T04:07:06.040Z,9.98
2023-09-08T04:08:08.015Z,10.10
2023-09-08T04:09:09.895Z,9.80
2023-09-08T04:10:12.087Z,10.40
2023-09-08T04:11:14.491Z,10.23
2023-09-08T04:12:16.757Z,10.88
2023-09-08T04:13:19.269Z,9.45
2023-09-08T04:14:21.414Z,10.75
2023-09-08T04:15:23.774Z,10.15
2023-09-08T04:16:27.493Z,10.05
2023-09-08T04:17:30.089Z,10.55
2023-09-08T04:18:32.272Z,10.80
2023-09-08T04:19:35.229Z,10.95
2023-09-08T04:20:37.203Z,10.60
2023-09-08T04:21:39.773Z,10.68
2023-09-08T04:22:42.069Z,10.02
2023-09-08T04:23:44.015Z,10.07
2023-09-08T04:24:45.937Z,10.15
2023-09-08T04:25:47.964Z,10.55
2023-09-08T04:26:49.859Z,9.52
2023-09-08T04:27:51.720Z,10.70
2023-09-08T04:28:53.613Z,11.27
2023-09-08T04:29:55.653Z,9.75
2023-09-08T04:30:57.971Z,10.95
2023-09-08T04:32:00.839Z,10.85
2023-09-08T04:33:02.906Z,10.73
2023-09-08T04:34:04.980Z,11.15
2023-09-08T04:35:08.705Z,10.40
2023-09-08T04:36:12.229Z,10.38
2023-09-08T04:37:15.205Z,11.18
2023-09-08T04:38:17.488Z,11.10
2023-09-08T04:39:19.613Z,10.73
2023-09-08T04:40:21.696Z,11.27
2023-09-08T04:41:23.695Z,10.20
2023-09-08T04:42:26.779Z,11.27
2023-09-08T04:43:29.125Z,10.98
2023-09-08T04:44:31.208Z,10.95
2023-09-08T04:45:33.136Z,10.65
2023-09-08T04:46:36.707Z,10.70
2023-09-08T04:47:39.764Z,11.20
2023-09-08T04:48:43.611Z,10.88
2023-09-08T04:49:46.515Z,11.23
2023-09-08T04:50:48.444Z,10.48
2023-09-08T04:51:50.569Z,10.07
2023-09-08T04:52:55.499Z,10.73
2023-09-08T04:53:57.765Z,10.75
2023-09-08T04:54:59.711Z,11.05
2023-09-08T04:56:01.871Z,11.30
2023-09-08T04:57:20.119Z,10.63
2023-09-08T04:58:24.537Z,10.23
2023-09-08T04:59:26.606Z,10.85
2023-09-08T05:00:30.218Z,11.43
2023-09-08T05:01:33.686Z,10.60
2023-09-08T05:02:36.993Z,11.65
2023-09-08T05:03:40.386Z,11.38
2023-09-08T05:04:43.597Z,10.80
2023-09-08T05:05:46.531Z,10.50
2023-09-08T05:06:49.416Z,10.65
2023-09-08T05:07:57.196Z,10.88
2023-09-08T05:09:13.748Z,9.73
2023-09-08T05:10:16.838Z,10.32
2023-09-08T05:11:20.126Z,10.93
2023-09-08T05:12:22.175Z,9.65
2023-09-08T05:13:31.323Z,10.80
2023-09-08T05:14:35.209Z,11.35
2023-09-08T05:15:38.725Z,10.95
2023-09-08T05:16:46.909Z,10.00
2023-09-08T05:17:52.530Z,11.10
2023-09-08T05:18:56.062Z,10.50
2023-09-08T05:19:58.245Z,10.10
2023-09-08T05:21:00.245Z,11.80
2023-09-08T05:22:02.379Z,10.70
2023-09-08T05:23:05.557Z,11.50
2023-09-08T05:24:08.622Z,10.15
2023-09-08T05:25:10.825Z,10.60
2023-09-08T05:26:12.920Z,11.18
2023-09-08T05:27:14.881Z,10.75
2023-09-08T05:28:16.880Z,10.77
2023-09-08T05:29:18.975Z,10.43
2023-09-08T05:30:20.942Z,10.88
2023-09-08T05:31:23.153Z,11.57
2023-09-08T05:32:25.168Z,11.50
2023-09-08T05:33:27.212Z,10.13
2023-09-08T05:34:29.361Z,10.70
2023-09-08T05:35:31.352Z,10.88
2023-09-08T05:36:35.558Z,9.95
2023-09-08T05:37:37.594Z,10.88
2023-09-08T05:38:39.549Z,10.50
2023-09-08T05:39:42.375Z,9.98
2023-09-08T05:40:44.429Z,10.52
2023-09-08T05:41:47.033Z,10.38
2023-09-08T05:42:49.259Z,10.63
2023-09-08T05:43:51.814Z,9.90
2023-09-08T05:44:55.751Z,10.70
2023-09-08T05:45:58.033Z,10.55
2023-09-08T05:47:00.458Z,9.50
2023-09-08T05:48:05.084Z,9.93
2023-09-08T05:49:08.467Z,10.00
2023-09-08T05:50:12.051Z,9.90
2023-09-08T05:51:16.026Z,10.20
2023-09-08T05:52:19.097Z,11.10
2023-09-08T05:53:21.954Z,10.23
2023-09-08T05:54:23.962Z,9.95
2023-09-08T05:55:26.016Z,10.07
2023-09-08T05:56:32.890Z,10.45
2023-09-08T05:57:35.842Z,10.05
2023-09-08T05:58:37.894Z,10.45
2023-09-08T05:59:40.243Z,10.45
2023-09-08T06:00:42.691Z,9.98
2023-09-08T06:01:44.719Z,11.77
2023-09-08T06:02:47.073Z,10.38
2023-09-08T06:03:51.648Z,10.18
2023-09-08T06:04:53.764Z,10.15
2023-09-08T06:05:56.103Z,10.85
2023-09-08T06:06:58.308Z,10.20
2023-09-08T06:08:07.298Z,10.05
2023-09-08T06:09:13.230Z,10.48
2023-09-08T06:10:15.908Z,10.50
2023-09-08T06:11:18.284Z,10.00
2023-09-08T06:12:20.275Z,9.55
2023-09-08T06:13:22.180Z,10.30
2023-09-08T06:14:24.241Z,10.32
2023-09-08T06:15:26.938Z,10.52
2023-09-08T06:16:29.216Z,10.10
2023-09-08T06:17:32.151Z,9.98
2023-09-08T06:18:40.979Z,10.00
2023-09-08T06:19:45.398Z,10.13
2023-09-08T06:20:48.837Z,9.82
2023-09-08T06:21:51.403Z,11.43
2023-09-08T06:22:53.267Z,9.55
2023-09-08T06:23:55.378Z,9.88
2023-09-08T06:24:57.366Z,10.25
2023-09-08T06:26:02.135Z,10.52
2023-09-08T06:27:07.959Z,10.07
2023-09-08T06:28:10.101Z,10.52
2023-09-08T06:29:12.055Z,9.25
2023-09-08T06:30:15.542Z,9.90
2023-09-08T06:31:18.119Z,10.27
2023-09-08T06:32:20.744Z,9.32
2023-09-08T06:33:24.569Z,9.20
2023-09-08T06:34:26.865Z,10.75
2023-09-08T06:35:28.942Z,9.98
2023-09-08T06:36:30.880Z,9.73
2023-09-08T06:37:41.615Z,9.82
2023-09-08T06:38:44.393Z,10.13
2023-09-08T06:39:46.965Z,9.70
2023-09-08T06:40:49.277Z,9.88
2023-09-08T06:41:51.209Z,10.27
2023-09-08T06:44:05.723Z,10.20
2023-09-08T06:45:11.059Z,9.95
2023-09-08T06:46:13.011Z,9.90
2023-09-08T06:47:14.903Z,9.27
2023-09-08T06:48:17.770Z,9.82
2023-09-08T06:49:19.860Z,10.13
2023-09-08T06:50:25.499Z,9.48
2023-09-08T06:51:27.534Z,10.40
2023-09-08T06:52:29.700Z,10.25
2023-09-08T06:53:32.147Z,9.90
2023-09-08T06:54:34.270Z,9.70
2023-09-08T06:55:36.181Z,9.63
2023-09-08T06:56:38.663Z,10.05
2023-09-08T06:57:42.096Z,10.43
2023-09-08T06:58:44.261Z,11.40
2023-09-08T06:59:46.968Z,9.32
2023-09-08T07:00:51.037Z,17.80
2023-09-08T07:01:53.491Z,19.48
2023-09-08T07:02:55.891Z,18.85
2023-09-08T07:03:58.141Z,13.35
2023-09-08T07:05:00.288Z,11.00
2023-09-08T07:06:02.537Z,9.95
2023-09-08T07:07:08.135Z,10.55
2023-09-08T07:08:12.288Z,9.90
2023-09-08T07:09:14.774Z,9.80
2023-09-08T07:10:16.804Z,9.52
2023-09-08T07:11:18.933Z,10.23
2023-09-08T07:12:21.782Z,9.70
2023-09-08T07:13:23.787Z,9.57
2023-09-08T07:14:26.437Z,9.07
2023-09-08T07:15:28.390Z,9.90
2023-09-08T07:16:30.520Z,9.65
2023-09-08T07:17:33.187Z,9.10
2023-09-08T07:18:37.381Z,9.63
2023-09-08T07:19:40.379Z,9.35
2023-09-08T07:20:42.387Z,9.30
2023-09-08T07:21:44.239Z,9.90
2023-09-08T07:22:48.215Z,8.05
2023-09-08T07:23:50.286Z,9.75
2023-09-08T07:24:52.368Z,8.70
2023-09-08T07:25:54.512Z,9.75
2023-09-08T07:27:01.677Z,8.55
2023-09-08T07:28:04.835Z,8.90
2023-09-08T07:29:06.793Z,8.98
2023-09-08T07:30:09.704Z,9.20
2023-09-08T07:31:12.761Z,8.65
2023-09-08T07:32:20.374Z,9.65
2023-09-08T07:33:23.737Z,8.38
2023-09-08T07:34:26.023Z,11.10
2023-09-08T07:35:28.102Z,8.00
2023-09-08T07:36:30.149Z,9.00
2023-09-08T07:37:32.115Z,8.13
2023-09-08T07:38:35.046Z,8.68
2023-09-08T07:39:37.354Z,8.25
2023-09-08T07:40:39.265Z,9.32
2023-09-08T07:41:42.370Z,8.40
2023-09-08T07:42:45.870Z,8.90
2023-09-08T07:43:49.114Z,9.20
2023-09-08T07:44:55.250Z,8.52
2023-09-08T07:45:57.337Z,8.20
2023-09-08T07:46:59.367Z,8.60
2023-09-08T07:48:01.517Z,7.47
2023-09-08T07:49:04.177Z,8.40
2023-09-08T07:50:26.649Z,8.45
2023-09-08T07:51:28.573Z,8.05
2023-09-08T07:52:30.449Z,8.60
2023-09-08T07:53:32.463Z,8.73
2023-09-08T07:54:34.565Z,7.80
2023-09-08T07:55:37.469Z,6.95
2023-09-08T07:56:39.508Z,7.93
2023-09-08T07:57:44.766Z,8.32
2023-09-08T07:58:46.782Z,6.70
2023-09-08T07:59:48.670Z,6.68
2023-09-08T08:00:50.541Z,7.35
2023-09-08T08:01:52.440Z,7.93
2023-09-08T08:02:59.253Z,7.78
2023-09-08T08:04:04.219Z,7.97
2023-09-08T08:05:07.214Z,7.38
2023-09-08T08:06:09.374Z,7.13
2023-09-08T08:07:11.235Z,6.97
2023-09-08T08:08:13.569Z,6.28
2023-09-08T08:09:15.781Z,6.38
2023-09-08T08:10:18.823Z,7.38
2023-09-08T08:11:20.933Z,7.75
2023-09-08T08:12:23.587Z,7.78
2023-09-08T08:13:25.983Z,7.30
2023-09-08T08:14:28.098Z,6.75
2023-09-08T08:15:43.514Z,6.45
2023-09-08T08:16:45.420Z,6.28
2023-09-08T08:17:47.422Z,7.57
2023-09-08T08:18:49.926Z,6.25
2023-09-08T08:19:52.014Z,6.40
2023-09-08T08:20:53.963Z,6.25
2023-09-08T08:21:58.118Z,6.57
2023-09-08T08:23:00.134Z,7.35
2023-09-08T08:24:02.073Z,6.85
2023-09-08T08:25:04.722Z,6.75
2023-09-08T08:26:07.405Z,6.90
2023-09-08T08:27:09.522Z,6.07
2023-09-08T08:28:11.511Z,6.50
2023-09-08T08:29:13.380Z,5.85
2023-09-08T08:30:15.290Z,6.60
2023-09-08T08:31:17.208Z,6.07
2023-09-08T08:32:19.272Z,5.75
2023-09-08T08:33:22.175Z,5.80
2023-09-08T08:34:24.064Z,6.25
2023-09-08T08:35:26.105Z,6.10
2023-09-08T08:36:27.989Z,5.45
2023-09-08T08:37:29.989Z,6.10
2023-09-08T08:38:32.715Z,6.40
2023-09-08T08:39:35.498Z,5.78
2023-09-08T08:40:40.624Z,6.15
2023-09-08T08:41:42.740Z,5.90
2023-09-08T08:42:45.302Z,6.80
2023-09-08T08:43:49.191Z,6.40
2023-09-08T08:44:51.455Z,6.60
2023-09-08T08:45:55.192Z,6.22
2023-09-08T08:46:57.925Z,6.40
2023-09-08T08:48:02.419Z,6.53
2023-09-08T08:49:05.732Z,5.85
2023-09-08T08:50:12.013Z,6.57
2023-09-08T08:51:15.934Z,6.63
2023-09-08T08:52:19.435Z,5.78
2023-09-08T08:53:22.590Z,5.75
2023-09-08T08:54:26.177Z,5.65
2023-09-08T08:55:31.639Z,5.57
2023-09-08T08:56:36.782Z,5.93
2023-09-08T08:57:40.623Z,5.70
2023-09-08T08:58:43.550Z,6.13
2023-09-08T08:59:47.673Z,6.03
2023-09-08T09:00:49.619Z,5.50
2023-09-08T09:01:52.117Z,5.20
2023-09-08T09:03:03.542Z,5.05
2023-09-08T09:04:17.764Z,5.55
2023-09-08T09:05:20.534Z,5.80
2023-09-08T09:06:22.866Z,5.95
2023-09-08T09:07:25.933Z,5.68
2023-09-08T09:08:29.144Z,5.50
2023-09-08T09:09:31.178Z,5.95
2023-09-08T09:10:33.230Z,5.70
2023-09-08T09:11:35.517Z,5.40
2023-09-08T09:12:39.357Z,5.60
2023-09-08T09:13:41.278Z,5.70
2023-09-08T09:14:53.789Z,6.18
2023-09-08T09:16:01.451Z,6.50
2023-09-08T09:17:06.239Z,5.65
2023-09-08T09:18:09.662Z,5.68
2023-09-08T09:19:26.513Z,6.78
2023-09-08T09:20:28.520Z,5.72
2023-09-08T09:21:49.456Z,6.35
2023-09-08T09:22:51.444Z,6.35
2023-09-08T09:23:54.903Z,6.50
2023-09-08T09:24:58.635Z,5.28
2023-09-08T09:26:07.938Z,6.10
2023-09-08T09:27:11.779Z,5.38
2023-09-08T09:28:13.756Z,5.82
2023-09-08T09:29:15.800Z,6.07
2023-09-08T09:30:17.817Z,6.43
2023-09-08T09:31:19.967Z,5.72
2023-09-08T09:32:26.706Z,5.10
2023-09-08T09:33:29.920Z,5.32
2023-09-08T09:34:31.923Z,5.78
2023-09-08T09:35:55.407Z,5.60
2023-09-08T09:36:57.972Z,5.40
2023-09-08T09:37:59.874Z,5.72
2023-09-08T09:39:04.396Z,5.47
2023-09-08T09:40:08.734Z,5.40
2023-09-08T09:41:10.948Z,5.88
2023-09-08T09:42:15.091Z,5.20
2023-09-08T09:43:24.154Z,5.90
2023-09-08T09:44:26.827Z,5.63
2023-09-08T09:45:29.610Z,6.60
2023-09-08T09:46:31.981Z,5.68
2023-09-08T09:47:34.105Z,6.07
2023-09-08T09:48:36.998Z,5.90
2023-09-08T09:49:49.894Z,6.50
2023-09-08T09:50:52.160Z,5.85
2023-09-08T09:51:55.163Z,5.82
2023-09-08T09:53:01.220Z,5.55
2023-09-08T09:54:05.457Z,6.28
2023-09-08T09:55:09.241Z,6.40
2023-09-08T09:56:12.662Z,6.25
2023-09-08T09:57:15.758Z,5.90
2023-09-08T09:58:21.815Z,6.22
2023-09-08T09:59:24.777Z,5.97
2023-09-08T10:00:29.077Z,6.35
2023-09-08T10:01:33.295Z,6.68
2023-09-08T10:02:36.077Z,6.20
2023-09-08T10:03:41.424Z,6.70
2023-09-08T10:04:46.922Z,6.50
2023-09-08T10:05:50.919Z,7.25
2023-09-08T10:06:54.787Z,6.55
2023-09-08T10:07:58.882Z,6.47
2023-09-08T10:09:05.918Z,6.60
2023-09-08T10:10:08.359Z,9.00
2023-09-08T10:11:12.902Z,7.38
2023-09-08T10:12:19.056Z,6.72
2023-09-08T10:13:41.583Z,6.38
2023-09-08T10:14:44.663Z,7.53
2023-09-08T10:15:50.906Z,6.85
2023-09-08T10:17:00.792Z,6.65
2023-09-08T10:18:06.834Z,7.10
2023-09-08T10:19:11.409Z,6.10
2023-09-08T10:20:17.055Z,6.18
2023-09-08T10:21:22.696Z,5.78
2023-09-08T10:22:33.245Z,6.57
2023-09-08T10:23:43.394Z,6.57
2023-09-08T10:24:49.536Z,6.00
2023-09-08T10:26:04.617Z,5.72
2023-09-08T10:27:12.986Z,6.30
2023-09-08T10:28:16.908Z,6.32
2023-09-08T10:29:20.222Z,6.00
2023-09-08T10:30:23.820Z,6.05
2023-09-08T10:31:28.610Z,5.40
2023-09-08T10:32:34.560Z,7.32
2023-09-08T10:33:38.423Z,5.88
2023-09-08T10:34:42.334Z,6.07
2023-09-08T10:35:45.176Z,6.35
2023-09-08T10:36:47.274Z,6.68
2023-09-08T10:37:49.201Z,5.95
2023-09-08T10:38:52.905Z,6.45
2023-09-08T10:39:55.234Z,5.97
2023-09-08T10:41:16.100Z,5.28
2023-09-08T10:42:18.130Z,5.80
2023-09-08T10:43:21.374Z,6.00
2023-09-08T10:44:23.498Z,6.38
2023-09-08T10:45:26.770Z,5.72
2023-09-08T10:46:31.844Z,6.28
2023-09-08T10:47:58.048Z,5.90
2023-09-08T10:49:11.325Z,6.30
2023-09-08T10:50:26.768Z,5.88
2023-09-08T10:51:28.636Z,5.53
2023-09-08T10:52:31.137Z,6.20
2023-09-08T10:53:33.040Z,6.20
2023-09-08T10:54:54.205Z,6.13
2023-09-08T10:57:02.040Z,7.10
2023-09-08T10:58:06.609Z,8.20
2023-09-08T10:59:08.548Z,6.78
2023-09-08T11:00:13.161Z,5.72
2023-09-08T11:01:27.497Z,6.70
2023-09-08T11:02:45.789Z,5.35
2023-09-08T11:03:51.693Z,6.07
2023-09-08T11:04:55.486Z,5.43
2023-09-08T11:05:58.392Z,5.35
2023-09-08T11:07:01.584Z,5.18
2023-09-08T11:08:04.944Z,5.18
2023-09-08T11:09:10.776Z,5.50
2023-09-08T11:10:14.301Z,6.03
2023-09-08T11:11:19.191Z,5.68
2023-09-08T11:12:23.737Z,5.90
2023-09-08T11:13:25.651Z,5.00
2023-09-08T11:14:27.556Z,5.30
2023-09-08T11:15:29.510Z,5.35
2023-09-08T11:16:34.453Z,5.63
2023-09-08T11:17:43.484Z,5.45
2023-09-08T11:18:45.822Z,5.95
2023-09-08T11:19:51.098Z,6.13
2023-09-08T11:20:54.330Z,5.60
2023-09-08T11:21:57.006Z,5.63
2023-09-08T11:23:00.595Z,5.93
2023-09-08T11:24:05.887Z,5.13
2023-09-08T11:25:11.956Z,5.90
2023-09-08T11:26:14.509Z,5.30
2023-09-08T11:27:16.652Z,5.45
2023-09-08T11:28:22.349Z,5.45
2023-09-08T11:29:24.642Z,5.07
2023-09-08T11:30:26.972Z,6.10
2023-09-08T11:31:28.982Z,6.43
2023-09-08T11:32:36.088Z,5.50
2023-09-08T11:33:41.146Z,5.93
2023-09-08T11:34:43.370Z,5.90
2023-09-08T11:35:49.335Z,5.90
2023-09-08T11:36:51.439Z,5.60
2023-09-08T11:37:54.164Z,6.10
2023-09-08T11:38:56.038Z,5.35
2023-09-08T11:39:58.213Z,5.20
2023-09-08T11:41:01.472Z,5.72
2023-09-08T11:42:04.395Z,5.93
2023-09-08T11:43:07.769Z,5.25
2023-09-08T11:44:09.942Z,6.57
2023-09-08T11:45:19.225Z,4.93
2023-09-08T11:46:22.658Z,4.88
2023-09-08T11:47:25.828Z,6.25
2023-09-08T11:48:28.335Z,4.88
2023-09-08T11:49:41.952Z,5.32
2023-09-08T11:50:45.800Z,5.15
2023-09-08T11:51:47.919Z,4.80
2023-09-08T11:52:53.521Z,4.80
2023-09-08T11:53:56.046Z,5.00
2023-09-08T11:55:06.579Z,5.30
2023-09-08T11:56:09.711Z,5.20
2023-09-08T11:57:13.134Z,5.45
2023-09-08T11:58:15.693Z,5.50
2023-09-08T11:59:18.230Z,5.43
2023-09-08T12:00:23.898Z,5.30
2023-09-08T12:01:26.362Z,5.07
2023-09-08T12:02:28.445Z,5.22
2023-09-08T12:03:30.423Z,6.13
2023-09-08T12:04:37.128Z,5.10
2023-09-08T12:05:40.574Z,5.65
2023-09-08T12:06:43.346Z,5.13
2023-09-08T12:07:45.657Z,5.60
2023-09-08T12:08:47.704Z,4.93
2023-09-08T12:09:49.862Z,5.72
2023-09-08T12:10:56.533Z,6.80
2023-09-08T12:12:04.513Z,6.38
2023-09-08T12:13:06.570Z,5.55
2023-09-08T12:14:14.064Z,5.13
2023-09-08T12:15:41.521Z,5.13
2023-09-08T12:16:44.250Z,5.63
2023-09-08T12:17:51.083Z,4.93
2023-09-08T12:18:53.253Z,4.93
2023-09-08T12:19:55.090Z,5.57
2023-09-08T12:21:15.009Z,7.30
2023-09-08T12:22:18.924Z,6.20
2023-09-08T12:23:23.736Z,5.60
2023-09-08T12:24:57.632Z,5.35
2023-09-08T12:26:00.555Z,5.95
2023-09-08T12:27:04.568Z,5.22
2023-09-08T12:28:06.778Z,4.80
2023-09-08T12:29:14.849Z,5.25
2023-09-08T12:30:33.400Z,4.55
2023-09-08T12:31:35.992Z,5.20
2023-09-08T12:32:39.762Z,5.30
2023-09-08T12:33:45.129Z,5.30
2023-09-08T12:34:47.362Z,5.63
2023-09-08T12:35:52.163Z,5.50
2023-09-08T12:36:56.907Z,5.65
2023-09-08T12:38:06.978Z,4.85
2023-09-08T12:39:08.921Z,4.70
2023-09-08T12:40:11.890Z,5.38
2023-09-08T12:41:13.780Z,4.65
2023-09-08T12:42:16.244Z,5.35
2023-09-08T12:43:27.870Z,4.80
2023-09-08T12:44:30.448Z,4.65
2023-09-08T12:45:33.688Z,4.30
2023-09-08T12:46:36.645Z,4.60
2023-09-08T12:47:38.826Z,4.60
2023-09-08T12:48:40.800Z,4.65
2023-09-08T12:49:42.851Z,5.63
2023-09-08T12:50:44.800Z,5.38
2023-09-08T12:51:46.770Z,5.07
2023-09-08T12:52:48.686Z,4.88
2023-09-08T12:53:50.614Z,4.40
2023-09-08T12:54:52.632Z,5.13
2023-09-08T12:55:54.901Z,5.30
2023-09-08T12:56:56.855Z,4.57
2023-09-08T12:57:58.962Z,6.63
2023-09-08T12:59:00.982Z,6.57
2023-09-08T13:00:06.642Z,5.72
2023-09-08T13:01:08.687Z,5.45
2023-09-08T13:02:13.450Z,5.05
2023-09-08T13:03:15.408Z,5.40
2023-09-08T13:04:17.396Z,5.80
2023-09-08T13:05:19.369Z,5.63
2023-09-08T13:06:21.382Z,5.65
2023-09-08T13:07:23.346Z,5.38
2023-09-08T13:08:25.265Z,5.93
2023-09-08T13:09:27.141Z,5.90
2023-09-08T13:10:29.088Z,5.15
2023-09-08T13:11:32.288Z,5.97
2023-09-08T13:12:34.316Z,5.20
2023-09-08T13:13:36.350Z,5.07
2023-09-08T13:14:38.291Z,5.75
2023-09-08T13:15:40.297Z,5.07
2023-09-08T13:16:42.276Z,4.70
2023-09-08T13:17:44.199Z,5.10
2023-09-08T13:18:46.216Z,4.70
2023-09-08T13:19:48.751Z,5.28
2023-09-08T13:20:50.680Z,4.78
2023-09-08T13:21:52.638Z,4.93
2023-09-08T13:22:54.608Z,5.45
2023-09-08T13:23:56.589Z,4.55
2023-09-08T13:24:58.690Z,4.60
2023-09-08T13:26:00.580Z,4.60
2023-09-08T13:27:02.478Z,5.50
2023-09-08T13:28:04.884Z,5.45
2023-09-08T13:29:06.927Z,5.47
2023-09-08T13:30:15.442Z,6.30
2023-09-08T13:31:17.435Z,5.40
2023-09-08T13:32:19.604Z,5.45
2023-09-08T13:33:21.765Z,5.50
2023-09-08T13:34:23.947Z,4.75
2023-09-08T13:35:25.872Z,5.40
2023-09-08T13:36:27.821Z,5.10
2023-09-08T13:37:31.672Z,5.53
2023-09-08T13:38:34.037Z,5.18
2023-09-08T13:39:36.419Z,5.90
2023-09-08T13:40:39.495Z,5.40
2023-09-08T13:41:53.838Z,5.80
2023-09-08T13:42:55.790Z,6.00
2023-09-08T13:44:00.268Z,5.15
2023-09-08T13:45:02.653Z,4.97
2023-09-08T13:46:04.826Z,6.97
2023-09-08T13:47:07.028Z,5.75
2023-09-08T13:48:10.008Z,5.35
2023-09-08T13:49:12.944Z,4.80
2023-09-08T13:50:17.270Z,5.15
2023-09-08T13:51:21.733Z,5.10
2023-09-08T13:52:26.752Z,5.05
2023-09-08T13:53:42.545Z,4.90
2023-09-08T13:54:55.123Z,4.72
2023-09-08T13:56:08.958Z,5.85
2023-09-08T13:57:13.658Z,5.45
2023-09-08T13:58:19.652Z,5.53
2023-09-08T14:00:30.894Z,6.07
2023-09-08T14:01:41.447Z,4.82
2023-09-08T14:02:51.015Z,4.82
2023-09-08T14:05:02.730Z,5.50
2023-09-08T14:07:17.568Z,4.95
2023-09-08T14:08:39.315Z,4.72
2023-09-08T14:09:53.106Z,4.88
2023-09-08T14:13:07.400Z,4.10